Time;durP1;ratioP1;P1;durP2;ratioP2;P2;SDS_P1;SDS_P2;PMS_P1;PMS_P2;Temp;Humidity;BMP_temperature;BMP_pressure;BME280_temperature;BME280_humidity;BME280_pressure;Samples;Min_cycle;Max_cycle;Signal;HPM_P1;HPM_P2
2023/03/06 00:00:52;;;;;;;51.65;19.25;;;1.40;99.90;;;;;;4936318;29;20031;-72
2023/03/06 00:03:18;;;;;;;51.25;18.42;;;1.40;99.90;;;;;;4949233;29;20035;-72
2023/03/06 00:05:43;;;;;;;52.97;19.23;;;1.40;99.90;;;;;;4939514;29;20027;-72
2023/03/06 00:08:09;;;;;;;51.75;20.05;;;1.40;99.90;;;;;;4929873;29;20084;-72
2023/03/06 00:10:39;;;;;;;53.15;19.42;;;1.40;99.90;;;;;;4939768;29;20145;-72
2023/03/06 00:13:07;;;;;;;57.92;19.55;;;1.30;99.90;;;;;;4949324;29;20034;-72
2023/03/06 00:15:33;;;;;;;57.38;20.10;;;1.30;99.90;;;;;;4920933;29;20040;-72
2023/03/06 00:18:01;;;;;;;55.25;19.27;;;1.30;99.90;;;;;;4925748;29;20038;-72
2023/03/06 00:20:27;;;;;;;57.33;19.13;;;1.20;99.90;;;;;;4919798;29;20120;-72
2023/03/06 00:22:55;;;;;;;57.47;18.92;;;1.20;99.90;;;;;;4917914;28;20076;-72
2023/03/06 00:25:21;;;;;;;49.90;18.40;;;1.10;99.90;;;;;;4924029;29;20032;-72
2023/03/06 00:27:48;;;;;;;52.50;19.15;;;1.20;99.90;;;;;;4925187;29;20056;-72
2023/03/06 00:30:17;;;;;;;52.63;18.55;;;1.10;99.90;;;;;;4909141;29;20035;-72
2023/03/06 00:32:43;;;;;;;54.45;20.08;;;1.20;99.90;;;;;;4944797;29;20027;-72
2023/03/06 00:35:09;;;;;;;51.83;19.60;;;1.20;99.90;;;;;;4940349;29;20046;-72
2023/03/06 00:37:35;;;;;;;53.70;18.85;;;1.20;99.90;;;;;;4917403;29;20335;-72
2023/03/06 00:40:03;;;;;;;54.75;20.00;;;1.20;99.90;;;;;;4917839;29;20067;-72
2023/03/06 00:42:28;;;;;;;52.95;18.98;;;1.20;99.90;;;;;;4931367;29;20102;-72
2023/03/06 00:44:54;;;;;;;56.80;19.30;;;1.20;99.90;;;;;;4910258;29;20185;-72
2023/03/06 00:47:20;;;;;;;58.20;19.98;;;1.20;99.90;;;;;;4935270;29;20042;-72
2023/03/06 00:49:45;;;;;;;50.40;18.63;;;1.20;99.90;;;;;;4941691;29;20036;-72
2023/03/06 00:52:12;;;;;;;56.15;19.15;;;1.30;99.90;;;;;;4911372;29;20029;-72
2023/03/06 00:54:38;;;;;;;52.10;19.17;;;1.30;99.90;;;;;;4920460;29;20087;-72
2023/03/06 00:57:04;;;;;;;53.15;18.65;;;1.20;99.90;;;;;;4940748;29;20043;-72
2023/03/06 00:59:30;;;;;;;56.38;19.65;;;1.30;99.90;;;;;;4926555;29;20024;-72
2023/03/06 01:01:55;;;;;;;56.80;19.80;;;1.30;99.90;;;;;;4914079;29;20063;-72
2023/03/06 01:04:21;;;;;;;53.70;19.13;;;1.30;99.90;;;;;;4916323;29;20032;-72
2023/03/06 01:06:47;;;;;;;57.05;18.70;;;1.30;99.90;;;;;;4950187;29;20039;-72
2023/03/06 01:09:13;;;;;;;49.58;18.40;;;1.20;99.90;;;;;;4940596;29;20115;-72
2023/03/06 01:11:38;;;;;;;50.28;18.17;;;1.20;99.90;;;;;;4949870;29;20027;-72
2023/03/06 01:14:04;;;;;;;50.38;19.63;;;1.20;99.90;;;;;;4938654;29;20036;-72
2023/03/06 01:16:30;;;;;;;53.83;19.52;;;1.20;99.90;;;;;;4913081;29;20036;-72
2023/03/06 01:18:55;;;;;;;55.67;20.55;;;1.10;99.90;;;;;;4916870;29;20481;-72
2023/03/06 01:21:21;;;;;;;57.10;19.17;;;1.00;99.90;;;;;;4930873;29;20027;-72
2023/03/06 01:23:47;;;;;;;48.50;17.83;;;0.90;99.90;;;;;;4931901;29;20028;-72
2023/03/06 01:26:13;;;;;;;53.33;19.10;;;0.80;99.90;;;;;;4910188;29;20069;-72
2023/03/06 01:28:41;;;;;;;51.45;17.95;;;0.80;99.90;;;;;;4928796;29;20044;-72
2023/03/06 01:31:08;;;;;;;42.92;15.95;;;0.80;99.90;;;;;;4910621;29;20095;-72
2023/03/06 01:33:34;;;;;;;51.72;17.25;;;0.80;99.90;;;;;;4923050;29;20103;-72
2023/03/06 01:36:03;;;;;;;55.50;16.55;;;0.90;99.90;;;;;;4919670;29;20039;-72
2023/03/06 01:38:29;;;;;;;46.20;16.33;;;1.00;99.90;;;;;;4935476;29;20113;-72
2023/03/06 01:40:55;;;;;;;47.00;15.98;;;1.10;99.90;;;;;;4912844;29;20079;-72
2023/03/06 01:43:24;;;;;;;47.65;15.32;;;1.10;99.90;;;;;;4926365;29;20027;-72
2023/03/06 01:45:50;;;;;;;42.17;15.48;;;1.20;99.90;;;;;;4935924;29;20110;-72
2023/03/06 01:48:19;;;;;;;45.63;16.17;;;1.20;99.90;;;;;;4935303;29;20413;-72
2023/03/06 01:50:45;;;;;;;48.17;16.48;;;1.20;99.90;;;;;;4942150;29;20118;-72
2023/03/06 01:53:11;;;;;;;46.83;16.60;;;1.30;99.90;;;;;;4923622;29;20601;-72
2023/03/06 01:55:37;;;;;;;41.88;14.48;;;1.30;99.90;;;;;;4929883;29;20062;-72
2023/03/06 01:58:07;;;;;;;45.58;14.95;;;1.30;99.90;;;;;;4930569;29;20039;-72
2023/03/06 02:00:33;;;;;;;43.78;15.13;;;1.40;99.90;;;;;;4929184;29;20035;-72
2023/03/06 02:03:05;;;;;;;48.92;15.10;;;1.40;99.90;;;;;;4922098;29;20039;-72
2023/03/06 02:05:31;;;;;;;45.33;14.88;;;1.40;99.90;;;;;;4926166;29;20473;-72
2023/03/06 02:08:01;;;;;;;44.08;15.15;;;1.40;99.90;;;;;;4935757;29;20047;-72
2023/03/06 02:10:26;;;;;;;47.03;14.38;;;1.40;99.90;;;;;;4936762;29;20466;-72
2023/03/06 02:12:52;;;;;;;44.75;14.52;;;1.40;99.90;;;;;;4929238;29;20030;-72
2023/03/06 02:15:21;;;;;;;46.88;15.43;;;1.40;99.90;;;;;;4933552;29;20040;-72
2023/03/06 02:17:48;;;;;;;45.72;15.85;;;1.40;99.90;;;;;;4933498;29;20134;-72
2023/03/06 02:20:32;;;;;;;46.35;16.13;;;1.40;99.90;;;;;;4934667;29;20059;-72
2023/03/06 02:23:04;;;;;;;44.88;14.68;;;1.50;99.90;;;;;;4921489;29;20126;-72
2023/03/06 02:25:34;;;;;;;48.92;15.77;;;1.50;99.90;;;;;;4940139;29;20464;-72
2023/03/06 02:28:00;;;;;;;;;;;1.50;99.90;;;;;;4941470;29;20434;-72
2023/03/06 02:30:27;;;;;;;47.65;15.25;;;1.50;99.90;;;;;;4934716;29;19911;-72
2023/03/06 02:32:54;;;;;;;47.47;17.23;;;1.60;99.90;;;;;;4922550;29;20040;-72
2023/03/06 02:35:29;;;;;;;47.33;15.15;;;1.60;99.90;;;;;;4932645;29;20701;-72
2023/03/06 02:38:02;;;;;;;47.10;15.15;;;1.50;99.90;;;;;;4937499;29;20051;-72
2023/03/06 02:40:28;;;;;;;43.72;15.65;;;1.50;99.90;;;;;;4927993;29;20055;-72
2023/03/06 02:42:58;;;;;;;46.70;15.80;;;1.50;99.90;;;;;;4931306;29;20039;-72
2023/03/06 02:45:39;;;;;;;40.30;15.60;;;1.40;99.90;;;;;;4933131;29;20638;-72
2023/03/06 02:48:05;;;;;;;46.22;15.80;;;1.50;99.90;;;;;;4919747;29;20059;-72
2023/03/06 02:50:31;;;;;;;41.10;14.60;;;1.40;99.90;;;;;;4927512;29;20512;-72
2023/03/06 02:52:57;;;;;;;46.30;16.17;;;1.40;99.90;;;;;;4930563;29;20036;-72
2023/03/06 02:55:23;;;;;;;49.08;16.00;;;1.40;99.90;;;;;;4927531;29;20063;-72
2023/03/06 02:57:49;;;;;;;39.97;15.07;;;1.40;99.90;;;;;;4927297;29;20457;-72
2023/03/06 03:00:15;;;;;;;45.20;15.05;;;1.50;99.90;;;;;;4929094;29;20105;-72
2023/03/06 03:02:41;;;;;;;48.78;15.65;;;1.50;99.90;;;;;;4930200;29;20082;-72
2023/03/06 03:05:07;;;;;;;49.50;16.65;;;1.50;99.90;;;;;;4915725;29;20040;-73
2023/03/06 03:07:33;;;;;;;52.45;15.82;;;1.50;99.90;;;;;;4933609;29;20043;-72
2023/03/06 03:09:58;;;;;;;48.38;15.82;;;1.50;99.90;;;;;;4919801;29;20047;-72
2023/03/06 03:12:24;;;;;;;46.78;17.33;;;1.50;99.90;;;;;;4932945;29;20110;-72
2023/03/06 03:14:49;;;;;;;42.10;16.00;;;1.40;99.90;;;;;;4938141;29;20036;-72
2023/03/06 03:17:16;;;;;;;42.08;16.15;;;1.30;99.90;;;;;;4931351;29;20040;-72
2023/03/06 03:19:41;;;;;;;48.47;16.08;;;1.20;99.90;;;;;;4942770;29;20034;-72
2023/03/06 03:22:07;;;;;;;43.72;16.33;;;1.10;99.90;;;;;;4931713;29;20040;-72
2023/03/06 03:24:33;;;;;;;43.88;16.02;;;1.10;99.90;;;;;;4929559;29;20039;-74
2023/03/06 03:26:58;;;;;;;50.90;15.85;;;1.10;99.90;;;;;;4915758;29;20571;-72
2023/03/06 03:29:24;;;;;;;48.33;15.68;;;1.10;99.90;;;;;;4931921;29;20031;-72
2023/03/06 03:31:50;;;;;;;45.17;16.08;;;1.10;99.90;;;;;;4932598;29;20123;-72
2023/03/06 03:34:18;;;;;;;54.42;16.92;;;1.10;99.90;;;;;;4944038;29;20044;-73
2023/03/06 03:36:45;;;;;;;45.65;17.05;;;1.20;99.90;;;;;;4924462;29;20372;-71
2023/03/06 03:39:10;;;;;;;55.90;16.30;;;1.10;99.90;;;;;;4933091;29;20063;-75
2023/03/06 03:41:36;;;;;;;52.35;17.55;;;1.10;99.90;;;;;;4930341;29;20067;-71
2023/03/06 03:44:01;;;;;;;50.67;18.08;;;1.00;99.90;;;;;;4912972;29;20040;-71
2023/03/06 03:46:27;;;;;;;51.75;17.45;;;1.00;99.90;;;;;;4931486;29;20082;-72
2023/03/06 03:48:53;;;;;;;49.90;17.55;;;1.00;99.90;;;;;;4929255;29;20054;-72
2023/03/06 03:51:18;;;;;;;47.75;16.65;;;1.00;99.90;;;;;;4931221;29;20038;-71
2023/03/06 03:53:44;;;;;;;53.05;18.13;;;1.00;99.90;;;;;;4933087;29;20607;-73
2023/03/06 03:56:11;;;;;;;47.13;17.23;;;1.00;99.90;;;;;;4919911;29;20043;-74
2023/03/06 03:58:36;;;;;;;47.22;16.58;;;1.00;99.90;;;;;;4948620;28;20042;-71
2023/03/06 04:01:02;;;;;;;49.72;17.55;;;0.90;99.90;;;;;;4950689;29;20035;-70
2023/03/06 04:03:28;;;;;;;49.67;16.08;;;0.90;99.90;;;;;;4942202;29;20658;-71
2023/03/06 04:05:56;;;;;;;47.95;16.45;;;0.90;99.90;;;;;;4935044;29;20448;-70
2023/03/06 04:08:23;;;;;;;47.90;16.95;;;0.90;99.90;;;;;;4949731;29;20066;-71
2023/03/06 04:10:52;;;;;;;48.05;16.00;;;0.90;99.90;;;;;;4945907;29;20046;-71
2023/03/06 04:13:20;;;;;;;51.55;16.98;;;0.80;99.90;;;;;;4948563;29;20457;-72
2023/03/06 04:15:47;;;;;;;46.85;16.42;;;0.80;99.90;;;;;;4934399;29;20385;-71
2023/03/06 04:18:15;;;;;;;57.42;16.40;;;0.90;99.90;;;;;;4929587;29;20035;-74
2023/03/06 04:20:41;;;;;;;46.80;17.05;;;0.90;99.90;;;;;;4949794;29;20448;-71
2023/03/06 04:23:07;;;;;;;49.58;16.75;;;0.90;99.90;;;;;;4950500;29;20675;-70
2023/03/06 04:25:32;;;;;;;47.17;16.70;;;0.90;99.90;;;;;;4939944;29;20023;-70
2023/03/06 04:27:58;;;;;;;50.15;17.85;;;0.90;99.90;;;;;;4950376;29;20059;-71
2023/03/06 04:30:24;;;;;;;54.75;17.58;;;0.90;99.90;;;;;;4931437;29;20037;-71
2023/03/06 04:32:49;;;;;;;53.75;17.75;;;0.90;99.90;;;;;;4937104;29;20062;-71
2023/03/06 04:35:15;;;;;;;49.28;17.13;;;0.90;99.90;;;;;;4949596;29;20030;-71
2023/03/06 04:37:40;;;;;;;53.45;18.13;;;0.90;99.90;;;;;;4946405;29;20130;-71
2023/03/06 04:40:08;;;;;;;49.72;16.10;;;0.90;99.90;;;;;;4934888;29;20032;-70
2023/03/06 04:42:33;;;;;;;93.97;31.17;;;0.90;99.90;;;;;;4932687;29;20892;-70
2023/03/06 04:44:59;;;;;;;83.32;28.38;;;1.00;99.90;;;;;;4950271;29;20031;-71
2023/03/06 04:47:27;;;;;;;61.42;21.50;;;1.00;99.90;;;;;;4948057;29;20027;-71
2023/03/06 04:49:53;;;;;;;53.78;19.20;;;0.90;99.90;;;;;;4950299;29;20095;-71
2023/03/06 04:52:19;;;;;;;52.35;18.08;;;0.90;99.90;;;;;;4948467;29;21482;-70
2023/03/06 04:54:44;;;;;;;55.20;19.60;;;0.80;99.90;;;;;;4935870;29;20091;-71
2023/03/06 04:57:11;;;;;;;54.88;19.67;;;0.80;99.90;;;;;;4931665;29;20028;-73
2023/03/06 04:59:37;;;;;;;51.55;19.63;;;0.90;99.90;;;;;;4949594;29;20098;-71
2023/03/06 05:02:02;;;;;;;60.38;21.00;;;0.90;99.90;;;;;;4947741;29;20476;-71
2023/03/06 05:04:28;;;;;;;65.00;23.02;;;0.90;99.90;;;;;;4947043;29;20031;-71
2023/03/06 05:06:54;;;;;;;50.88;17.45;;;0.90;99.90;;;;;;4939981;29;20464;-71
2023/03/06 05:09:19;;;;;;;51.60;17.13;;;0.80;99.90;;;;;;4949257;28;20654;-71
2023/03/06 05:11:45;;;;;;;55.45;17.83;;;0.70;99.90;;;;;;4945459;29;20051;-71
2023/03/06 05:14:11;;;;;;;49.08;17.00;;;0.70;99.90;;;;;;4928483;29;20401;-71
2023/03/06 05:16:36;;;;;;;49.42;16.90;;;0.60;99.90;;;;;;4913540;29;20035;-71
2023/03/06 05:19:02;;;;;;;48.65;17.17;;;0.70;99.90;;;;;;4927078;29;20047;-71
2023/03/06 05:21:27;;;;;;;47.97;17.00;;;0.70;99.90;;;;;;4933859;29;20039;-71
2023/03/06 05:23:53;;;;;;;49.65;16.00;;;0.70;99.90;;;;;;4951385;29;20047;-71
2023/03/06 05:26:19;;;;;;;47.80;16.35;;;0.70;99.90;;;;;;4950166;28;20142;-73
2023/03/06 05:28:47;;;;;;;53.50;16.90;;;0.70;99.90;;;;;;4915492;29;20044;-71
2023/03/06 05:31:15;;;;;;;44.65;15.60;;;0.70;99.90;;;;;;4923995;29;20537;-73
2023/03/06 05:33:41;;;;;;;54.05;17.20;;;0.80;99.90;;;;;;4931047;29;20130;-71
2023/03/06 05:36:08;;;;;;;47.85;16.60;;;0.80;99.90;;;;;;4934720;29;20059;-71
2023/03/06 05:38:34;;;;;;;51.50;16.08;;;0.80;99.90;;;;;;4932323;29;20111;-71
2023/03/06 05:41:00;;;;;;;45.45;15.82;;;0.80;99.90;;;;;;4933348;29;20163;-71
2023/03/06 05:43:25;;;;;;;54.83;17.73;;;0.80;99.90;;;;;;4932361;29;20038;-71
2023/03/06 05:46:00;;;;;;;52.83;16.02;;;0.80;99.90;;;;;;4934023;29;20024;-71
2023/03/06 05:48:26;;;;;;;57.58;17.77;;;0.80;99.90;;;;;;4931628;29;20086;-71
2023/03/06 05:50:59;;;;;;;48.65;16.70;;;0.80;99.90;;;;;;4934035;29;20028;-71
2023/03/06 05:53:25;;;;;;;44.95;17.23;;;0.80;99.90;;;;;;4932293;29;20036;-71
2023/03/06 05:55:59;;;;;;;53.95;17.00;;;0.80;99.90;;;;;;4933394;29;20118;-71
2023/03/06 05:58:26;;;;;;;46.17;15.95;;;0.90;99.90;;;;;;4915218;29;20055;-71
2023/03/06 06:00:52;;;;;;;49.50;16.70;;;0.90;99.90;;;;;;4933651;29;20777;-71
2023/03/06 06:03:18;;;;;;;52.38;17.92;;;0.90;99.90;;;;;;4931023;29;20035;-74
2023/03/06 06:05:44;;;;;;;44.80;16.70;;;0.90;99.90;;;;;;4915552;29;20035;-71
2023/03/06 06:08:09;;;;;;;51.08;17.08;;;0.90;99.90;;;;;;4915364;29;20036;-71
2023/03/06 06:10:35;;;;;;;51.90;17.27;;;0.90;99.90;;;;;;4932322;29;20769;-71
2023/03/06 06:13:00;;;;;;;51.30;17.05;;;0.90;99.90;;;;;;4914617;29;20027;-73
2023/03/06 06:15:27;;;;;;;49.55;17.80;;;0.90;99.90;;;;;;4938939;29;20027;-71
2023/03/06 06:17:54;;;;;;;57.47;17.20;;;0.90;99.90;;;;;;4936344;29;20044;-71
2023/03/06 06:20:20;;;;;;;47.65;17.75;;;0.90;99.90;;;;;;4937449;29;20039;-74
2023/03/06 06:22:45;;;;;;;47.78;16.45;;;0.90;99.90;;;;;;4943142;28;20062;-70
2023/03/06 06:25:11;;;;;;;48.63;16.63;;;0.90;99.90;;;;;;4937630;29;20051;-73
2023/03/06 06:27:36;;;;;;;51.33;16.75;;;0.90;99.90;;;;;;4937331;29;20144;-71
2023/03/06 06:30:04;;;;;;;48.15;17.58;;;0.90;99.90;;;;;;4931439;29;20641;-71
2023/03/06 06:32:29;;;;;;;54.03;17.42;;;0.90;99.90;;;;;;4931903;29;20078;-71
2023/03/06 06:34:55;;;;;;;50.85;17.35;;;0.90;99.90;;;;;;4933205;29;20035;-71
2023/03/06 06:37:21;;;;;;;54.83;18.13;;;0.90;99.90;;;;;;4931156;29;20036;-71
2023/03/06 06:39:47;;;;;;;51.35;17.60;;;0.90;99.90;;;;;;4932603;29;20039;-70
2023/03/06 06:42:12;;;;;;;53.50;17.67;;;0.90;99.90;;;;;;4932306;29;20088;-71
2023/03/06 06:44:38;;;;;;;49.95;17.33;;;0.90;99.90;;;;;;4931681;29;20028;-71
2023/03/06 06:47:05;;;;;;;51.15;18.38;;;0.80;99.90;;;;;;4936585;29;20034;-70
2023/03/06 06:49:31;;;;;;;55.30;18.27;;;0.90;99.90;;;;;;4945980;29;20054;-70
2023/03/06 06:51:57;;;;;;;53.33;17.65;;;0.90;99.90;;;;;;4943748;29;20032;-70
2023/03/06 06:54:23;;;;;;;51.22;17.42;;;1.00;99.90;;;;;;4949861;29;20090;-70
2023/03/06 06:56:49;;;;;;;47.25;16.50;;;1.00;99.90;;;;;;4947550;29;20032;-70
2023/03/06 06:59:15;;;;;;;49.20;17.90;;;1.00;99.90;;;;;;4937597;29;20039;-70
2023/03/06 07:01:40;;;;;;;49.65;17.67;;;1.10;99.90;;;;;;4945144;29;20037;-71
2023/03/06 07:04:06;;;;;;;54.50;18.60;;;1.10;99.90;;;;;;4935379;29;20082;-68
2023/03/06 07:06:32;;;;;;;51.40;17.05;;;1.10;99.90;;;;;;4920175;29;20039;-67
2023/03/06 07:08:57;;;;;;;50.55;17.23;;;1.10;99.90;;;;;;4930904;29;20050;-67
2023/03/06 07:11:23;;;;;;;48.58;17.02;;;1.10;99.90;;;;;;4924060;29;20057;-67
2023/03/06 07:13:49;;;;;;;49.38;15.93;;;1.10;99.90;;;;;;4933966;29;20170;-66
2023/03/06 07:16:18;;;;;;;48.55;16.60;;;1.10;99.90;;;;;;4930174;29;20027;-66
2023/03/06 07:18:45;;;;;;;47.47;16.38;;;1.20;99.90;;;;;;4936922;29;20145;-64
2023/03/06 07:21:11;;;;;;;43.45;16.08;;;1.30;99.90;;;;;;4949415;29;20046;-64
2023/03/06 07:23:36;;;;;;;49.45;17.33;;;1.30;99.90;;;;;;4929146;29;20040;-64
2023/03/06 07:26:03;;;;;;;54.17;16.58;;;1.40;99.90;;;;;;4912376;29;20051;-64
2023/03/06 07:28:28;;;;;;;44.03;16.20;;;1.50;99.90;;;;;;4928727;29;20043;-64
2023/03/06 07:30:54;;;;;;;46.63;16.77;;;1.50;99.90;;;;;;4943403;29;20041;-65
2023/03/06 07:33:20;;;;;;;49.50;16.52;;;1.50;99.90;;;;;;4935289;29;20078;-64
2023/03/06 07:35:46;;;;;;;46.92;17.27;;;1.60;99.90;;;;;;4933072;29;20035;-64
2023/03/06 07:38:13;;;;;;;50.00;17.25;;;1.60;99.90;;;;;;4923159;29;20122;-64
2023/03/06 07:40:39;;;;;;;44.40;16.17;;;1.60;99.90;;;;;;4946398;29;20098;-64
2023/03/06 07:43:05;;;;;;;50.95;17.20;;;1.70;99.90;;;;;;4937776;29;20035;-64
2023/03/06 07:45:31;;;;;;;47.10;16.35;;;1.70;99.90;;;;;;4936474;29;20058;-64
2023/03/06 07:47:56;;;;;;;45.17;16.08;;;1.70;99.90;;;;;;4922597;29;20095;-64
2023/03/06 07:50:22;;;;;;;45.55;16.27;;;1.70;99.90;;;;;;4940258;29;20043;-64
2023/03/06 07:52:49;;;;;;;50.92;16.60;;;1.80;99.90;;;;;;4932916;29;20412;-64
2023/03/06 07:55:15;;;;;;;48.45;15.98;;;1.80;99.90;;;;;;4931200;29;20040;-64
2023/03/06 07:57:40;;;;;;;50.60;17.58;;;1.80;99.90;;;;;;4935234;29;20109;-64
2023/03/06 08:00:11;;;;;;;47.67;17.35;;;1.90;99.90;;;;;;4941583;29;20043;-64
2023/03/06 08:02:37;;;;;;;49.53;17.58;;;1.90;99.90;;;;;;4927899;29;20489;-64
2023/03/06 08:05:04;;;;;;;50.75;17.35;;;1.90;99.90;;;;;;4934940;29;20050;-64
2023/03/06 08:07:29;;;;;;;54.97;17.88;;;1.90;99.90;;;;;;4930316;29;20098;-64
2023/03/06 08:09:55;;;;;;;53.15;18.40;;;1.90;99.90;;;;;;4933987;29;20039;-64
2023/03/06 08:12:21;;;;;;;45.53;17.58;;;1.90;99.90;;;;;;4934524;29;20111;-64
2023/03/06 08:14:46;;;;;;;57.05;19.10;;;1.90;99.90;;;;;;4947533;29;20122;-64
2023/03/06 08:17:12;;;;;;;53.45;17.60;;;2.00;99.90;;;;;;4940702;29;20488;-64
2023/03/06 08:19:37;;;;;;;53.25;17.35;;;2.00;99.90;;;;;;4930137;29;20043;-64
2023/03/06 08:22:04;;;;;;;52.28;18.27;;;2.00;99.90;;;;;;4936846;29;20126;-64
2023/03/06 08:24:31;;;;;;;53.53;17.95;;;2.00;99.90;;;;;;4936510;29;20047;-64
2023/03/06 08:26:57;;;;;;;53.20;17.50;;;2.00;99.90;;;;;;4929326;29;20048;-63
2023/03/06 08:29:22;;;;;;;50.72;17.67;;;1.90;99.90;;;;;;4931004;29;20099;-64
2023/03/06 08:31:48;;;;;;;52.63;17.23;;;2.10;99.90;;;;;;4914089;29;20075;-64
2023/03/06 08:34:17;;;;;;;48.03;17.25;;;2.10;99.90;;;;;;4930381;29;20035;-63
2023/03/06 08:36:43;;;;;;;45.45;15.05;;;2.10;99.90;;;;;;4929067;29;20029;-63
2023/03/06 08:39:09;;;;;;;51.85;17.05;;;2.20;99.90;;;;;;4930591;29;20440;-68
2023/03/06 08:41:36;;;;;;;46.55;15.73;;;2.30;99.90;;;;;;4929352;29;20032;-68
2023/03/06 08:44:03;;;;;;;44.50;15.95;;;2.30;99.90;;;;;;4930059;29;20827;-68
2023/03/06 08:46:29;;;;;;;45.45;14.38;;;2.40;99.90;;;;;;4929368;29;20043;-68
2023/03/06 08:48:55;;;;;;;41.47;14.45;;;2.30;99.90;;;;;;4930537;29;20051;-68
2023/03/06 08:51:21;;;;;;;40.10;14.50;;;2.30;99.90;;;;;;4930190;29;20036;-69
2023/03/06 08:53:48;;;;;;;42.13;15.13;;;2.40;99.90;;;;;;4930391;29;20028;-69
2023/03/06 08:56:26;;;;;;;41.35;14.35;;;2.50;99.90;;;;;;4931680;29;20076;-69
2023/03/06 08:58:52;;;;;;;42.58;13.85;;;2.50;99.90;;;;;;4930179;29;20044;-70
2023/03/06 09:01:21;;;;;;;42.28;14.45;;;2.50;99.90;;;;;;4930778;29;20028;-69
2023/03/06 09:03:47;;;;;;;37.83;13.00;;;2.70;99.90;;;;;;4929904;29;20124;-70
2023/03/06 09:06:13;;;;;;;36.55;12.15;;;2.70;99.90;;;;;;4930941;29;20027;-69
2023/03/06 09:08:43;;;;;;;33.80;13.00;;;2.90;99.90;;;;;;4927995;29;20447;-69
2023/03/06 09:11:11;;;;;;;38.17;12.70;;;2.80;99.90;;;;;;4932576;29;20031;-69
2023/03/06 09:13:36;;;;;;;28.90;11.68;;;2.90;99.90;;;;;;4936807;29;20091;-67
2023/03/06 09:16:02;;;;;;;33.67;11.50;;;2.70;99.90;;;;;;4941447;29;20403;-67
2023/03/06 09:18:28;;;;;;;33.08;11.93;;;2.50;99.90;;;;;;4937333;29;20072;-70
2023/03/06 09:20:54;;;;;;;30.02;10.77;;;2.50;99.90;;;;;;4935234;29;20460;-67
2023/03/06 09:23:20;;;;;;;35.55;12.55;;;2.50;99.90;;;;;;4927649;29;20760;-68
2023/03/06 09:25:54;;;;;;;31.40;9.95;;;2.50;99.90;;;;;;4929305;29;20036;-68
2023/03/06 09:28:20;;;;;;;32.47;10.68;;;2.40;99.90;;;;;;4926806;29;20066;-67
2023/03/06 09:30:46;;;;;;;33.45;10.98;;;2.40;99.90;;;;;;4927029;29;20034;-64
2023/03/06 09:33:12;;;;;;;31.80;10.10;;;2.30;99.90;;;;;;4930507;29;20040;-68
2023/03/06 09:35:57;;;;;;;30.17;10.00;;;2.30;99.90;;;;;;4942490;29;20107;-68
2023/03/06 09:38:25;;;;;;;29.15;10.32;;;2.40;99.90;;;;;;4912637;29;20119;-68
2023/03/06 09:40:57;;;;;;;31.80;9.85;;;2.50;99.90;;;;;;4928637;29;20035;-69
2023/03/06 09:43:37;;;;;;;32.90;11.50;;;2.60;99.90;;;;;;4938106;29;20036;-68
2023/03/06 09:46:29;;;;;;;31.20;11.05;;;2.60;99.90;;;;;;4937309;29;20039;-69
2023/03/06 09:49:09;;;;;;;28.70;10.48;;;2.70;99.90;;;;;;4935377;29;20472;-68
2023/03/06 09:51:54;;;;;;;29.80;11.65;;;2.70;99.90;;;;;;4948981;29;20491;-68
2023/03/06 09:54:32;;;;;;;31.05;10.98;;;2.90;99.90;;;;;;4927216;29;20644;-68
2023/03/06 09:56:58;;;;;;;31.17;11.38;;;3.10;99.90;;;;;;4935985;29;20039;-69
2023/03/06 09:59:25;;;;;;;30.35;10.93;;;3.00;99.90;;;;;;4944952;29;20122;-70
2023/03/06 10:02:09;;;;;;;31.30;11.20;;;3.10;99.90;;;;;;4942089;29;20215;-71
2023/03/06 10:04:42;;;;;;;29.00;10.75;;;3.20;99.90;;;;;;4927931;29;20382;-71
2023/03/06 10:07:14;;;;;;;35.75;11.25;;;3.40;99.90;;;;;;4948574;29;20039;-69
2023/03/06 10:10:05;;;;;;;31.73;11.77;;;3.50;99.90;;;;;;4925112;29;20498;-69
2023/03/06 10:12:34;;;;;;;;;;;3.40;99.90;;;;;;4928569;29;20074;-72
2023/03/06 10:15:18;;;;;;;31.98;10.63;;;3.40;99.90;;;;;;4914422;29;19914;-66
2023/03/06 10:17:44;;;;;;;31.45;10.38;;;3.20;99.90;;;;;;4936678;29;20070;-66
2023/03/06 10:20:22;;;;;;;28.38;10.07;;;3.20;99.90;;;;;;4933424;29;20063;-66
2023/03/06 10:23:23;;;;;;;28.95;11.25;;;3.30;99.90;;;;;;4931300;29;20139;-67
2023/03/06 10:26:09;;;;;;;32.03;11.82;;;3.20;99.90;;;;;;4895796;29;20117;-66
2023/03/06 10:28:56;;;;;;;33.25;11.50;;;2.90;99.90;;;;;;4919419;29;20505;-66
2023/03/06 10:31:25;;;;;;;30.02;11.95;;;2.70;99.90;;;;;;4914343;29;20120;-67
2023/03/06 10:34:03;;;;;;;35.30;11.98;;;2.70;99.90;;;;;;4913876;29;20168;-67
2023/03/06 10:36:28;;;;;;;35.85;13.15;;;2.60;99.90;;;;;;4918511;29;20028;-67
2023/03/06 10:38:57;;;;;;;32.65;12.88;;;2.80;99.90;;;;;;4944536;29;20035;-67
2023/03/06 10:41:37;;;;;;;32.30;12.15;;;2.90;99.90;;;;;;4948556;29;20039;-68
2023/03/06 10:44:02;;;;;;;30.08;11.23;;;3.10;99.90;;;;;;4948050;29;20031;-69
2023/03/06 10:46:31;;;;;;;28.42;11.07;;;3.20;99.90;;;;;;4938461;29;20042;-68
2023/03/06 10:49:00;;;;;;;28.67;10.70;;;3.30;99.90;;;;;;4931126;29;20154;-69
2023/03/06 10:51:27;;;;;;;29.05;11.60;;;3.30;99.90;;;;;;4949654;29;20046;-68
2023/03/06 10:53:58;;;;;;;29.80;10.98;;;3.20;99.90;;;;;;4929174;29;20103;-68
2023/03/06 10:56:33;;;;;;;29.35;10.60;;;3.40;99.90;;;;;;4931157;29;20086;-68
2023/03/06 10:59:12;;;;;;;31.27;11.52;;;3.40;99.90;;;;;;4944520;29;20039;-69
2023/03/06 11:01:40;;;;;;;25.27;11.10;;;3.40;99.90;;;;;;4940044;29;20028;-69
2023/03/06 11:04:32;;;;;;;28.88;10.95;;;3.30;99.90;;;;;;4929771;29;20059;-67
2023/03/06 11:07:17;;;;;;;30.58;12.00;;;3.30;99.90;;;;;;4926439;29;20125;-67
2023/03/06 11:09:56;;;;;;;34.38;12.02;;;3.20;99.90;;;;;;4935908;29;20050;-67
2023/03/06 11:12:33;;;;;;;29.58;11.52;;;3.20;99.90;;;;;;4928192;29;20035;-67
2023/03/06 11:15:16;;;;;;;37.78;12.45;;;3.00;99.90;;;;;;4931569;29;20039;-68
2023/03/06 11:17:52;;;;;;;26.63;11.02;;;3.10;99.90;;;;;;4934069;29;20045;-66
2023/03/06 11:20:26;;;;;;;29.55;11.20;;;3.10;99.90;;;;;;4924063;29;20062;-67
2023/03/06 11:23:26;;;;;;;30.08;10.80;;;3.00;99.90;;;;;;4941402;29;20681;-65
2023/03/06 11:25:57;;;;;;;30.52;11.25;;;3.00;99.90;;;;;;4926586;29;20044;-66
2023/03/06 11:28:25;;;;;;;29.27;10.52;;;3.00;99.90;;;;;;4932000;29;20479;-66
2023/03/06 11:31:02;;;;;;;32.78;11.85;;;2.90;99.90;;;;;;4931294;29;20036;-67
2023/03/06 11:33:38;;;;;;;28.92;10.07;;;2.90;99.90;;;;;;4932100;29;20063;-66
2023/03/06 11:36:38;;;;;;;31.70;10.52;;;3.10;99.90;;;;;;4923473;29;20032;-67
2023/03/06 11:39:28;;;;;;;25.52;9.23;;;3.20;99.90;;;;;;4908503;29;20047;-67
2023/03/06 11:42:15;;;;;;;33.90;10.55;;;3.50;99.90;;;;;;4931208;29;20129;-68
2023/03/06 11:44:55;;;;;;;28.25;10.65;;;3.50;99.90;;;;;;4931096;29;20035;-67
2023/03/06 11:47:35;;;;;;;29.90;10.52;;;3.60;99.90;;;;;;4931549;29;20119;-68
2023/03/06 11:50:45;;;;;;;30.08;10.45;;;3.60;99.90;;;;;;4931638;29;20079;-68
2023/03/06 11:53:17;;;;;;;31.42;10.10;;;3.60;99.90;;;;;;4917142;29;20135;-68
2023/03/06 11:56:00;;;;;;;29.70;10.50;;;3.80;99.90;;;;;;4928858;29;20752;-68
2023/03/06 11:59:06;;;;;;;25.08;9.73;;;3.90;99.90;;;;;;4931970;29;20039;-67
2023/03/06 12:01:35;;;;;;;27.63;9.93;;;3.90;99.90;;;;;;4931447;29;20035;-67
2023/03/06 12:04:36;;;;;;;25.13;9.48;;;3.70;99.90;;;;;;4931162;29;20046;-67
2023/03/06 12:07:20;;;;;;;25.63;9.18;;;3.70;99.90;;;;;;4931222;29;20031;-66
2023/03/06 12:09:51;;;;;;;23.23;8.70;;;3.70;99.90;;;;;;4928645;29;20087;-65
2023/03/06 12:12:55;;;;;;;23.48;8.13;;;3.60;99.90;;;;;;4931834;29;20520;-66
2023/03/06 12:15:48;;;;;;;20.27;7.80;;;3.70;99.90;;;;;;4931684;29;20040;-66
2023/03/06 12:18:51;;;;;;;23.48;8.27;;;3.70;99.90;;;;;;4931427;29;20050;-67
2023/03/06 12:21:25;;;;;;;29.45;8.82;;;3.80;99.90;;;;;;4929825;29;20080;-67
2023/03/06 12:24:12;;;;;;;22.63;8.68;;;3.70;99.90;;;;;;4933592;29;20797;-68
2023/03/06 12:27:13;;;;;;;21.70;8.85;;;3.70;99.90;;;;;;4912754;29;20048;-68
2023/03/06 12:30:23;;;;;;;22.10;8.60;;;3.50;99.90;;;;;;4919135;29;20039;-68
2023/03/06 12:33:04;;;;;;;22.85;8.05;;;3.60;99.90;;;;;;4885457;29;20060;-67
2023/03/06 12:35:38;;;;;;;23.77;9.07;;;3.60;99.90;;;;;;4933385;29;20033;-67
2023/03/06 12:38:19;;;;;;;31.10;11.18;;;3.60;99.90;;;;;;4931518;29;20034;-66
2023/03/06 12:41:01;;;;;;;34.25;11.88;;;3.40;99.90;;;;;;4928777;29;20058;-66
2023/03/06 12:44:01;;;;;;;31.52;11.27;;;3.20;99.90;;;;;;4915690;29;20043;-66
2023/03/06 12:46:29;;;;;;;34.95;11.57;;;3.10;99.90;;;;;;4915367;29;20032;-66
2023/03/06 12:49:25;;;;;;;29.15;10.93;;;3.00;99.90;;;;;;4930316;29;20096;-67
2023/03/06 12:51:52;;;;;;;32.35;11.52;;;3.00;99.90;;;;;;4929200;29;20515;-66